sensor_id;sensor_type;location;lat;lon;timestamp;P1;durP1;ratioP1;P2;durP2;ratioP2
34695;SDS011;20918;51.138;17.370;2022-10-24T00:01:18;19.50;;;12.50;;
34695;SDS011;20918;51.138;17.370;2022-10-24T00:04:21;23.50;;;11.28;;
34695;SDS011;20918;51.138;17.370;2022-10-24T00:07:22;16.75;;;10.72;;
34695;SDS011;20918;51.138;17.370;2022-10-24T00:10:24;18.70;;;11.60;;
34695;SDS011;20918;51.138;17.370;2022-10-24T00:13:27;16.77;;;11.45;;
34695;SDS011;20918;51.138;17.370;2022-10-24T00:16:28;20.37;;;11.55;;
34695;SDS011;20918;51.138;17.370;2022-10-24T00:19:29;14.93;;;11.03;;
34695;SDS011;20918;51.138;17.370;2022-10-24T00:22:30;16.48;;;10.88;;
34695;SDS011;20918;51.138;17.370;2022-10-24T00:25:31;17.60;;;10.88;;
34695;SDS011;20918;51.138;17.370;2022-10-24T00:28:33;21.17;;;10.58;;
34695;SDS011;20918;51.138;17.370;2022-10-24T00:31:36;20.45;;;11.10;;
34695;SDS011;20918;51.138;17.370;2022-10-24T00:34:38;23.18;;;12.75;;
34695;SDS011;20918;51.138;17.370;2022-10-24T00:37:40;18.82;;;12.70;;
34695;SDS011;20918;51.138;17.370;2022-10-24T00:40:41;16.40;;;10.88;;
34695;SDS011;20918;51.138;17.370;2022-10-24T00:43:42;20.17;;;12.45;;
34695;SDS011;20918;51.138;17.370;2022-10-24T00:47:04;17.32;;;12.47;;
34695;SDS011;20918;51.138;17.370;2022-10-24T00:50:10;20.08;;;11.97;;
34695;SDS011;20918;51.138;17.370;2022-10-24T00:53:13;15.00;;;10.40;;
34695;SDS011;20918;51.138;17.370;2022-10-24T00:56:17;23.50;;;11.28;;
34695;SDS011;20918;51.138;17.370;2022-10-24T00:59:21;17.90;;;10.48;;
34695;SDS011;20918;51.138;17.370;2022-10-24T01:02:24;15.88;;;11.40;;
34695;SDS011;20918;51.138;17.370;2022-10-24T01:05:26;14.70;;;10.78;;
34695;SDS011;20918;51.138;17.370;2022-10-24T01:18:43;18.07;;;10.80;;
34695;SDS011;20918;51.138;17.370;2022-10-24T01:21:48;17.30;;;10.43;;
34695;SDS011;20918;51.138;17.370;2022-10-24T01:25:08;20.15;;;10.95;;
34695;SDS011;20918;51.138;17.370;2022-10-24T01:28:18;16.32;;;11.85;;
34695;SDS011;20918;51.138;17.370;2022-10-24T01:31:28;19.15;;;12.30;;
34695;SDS011;20918;51.138;17.370;2022-10-24T01:37:54;17.75;;;11.05;;
34695;SDS011;20918;51.138;17.370;2022-10-24T01:41:22;16.67;;;10.95;;
34695;SDS011;20918;51.138;17.370;2022-10-24T01:44:28;19.95;;;12.75;;
34695;SDS011;20918;51.138;17.370;2022-10-24T01:47:37;22.00;;;13.05;;
34695;SDS011;20918;51.138;17.370;2022-10-24T01:50:43;16.10;;;10.63;;
34695;SDS011;20918;51.138;17.370;2022-10-24T01:53:47;14.87;;;10.28;;
34695;SDS011;20918;51.138;17.370;2022-10-24T01:56:51;16.27;;;10.23;;
34695;SDS011;20918;51.138;17.370;2022-10-24T01:59:52;14.45;;;10.78;;
34695;SDS011;20918;51.138;17.370;2022-10-24T02:02:59;14.73;;;10.68;;
34695;SDS011;20918;51.138;17.370;2022-10-24T02:06:20;12.70;;;9.78;;
34695;SDS011;20918;51.138;17.370;2022-10-24T02:09:31;15.95;;;9.70;;
34695;SDS011;20918;51.138;17.370;2022-10-24T02:12:36;18.80;;;12.18;;
34695;SDS011;20918;51.138;17.370;2022-10-24T02:15:41;16.62;;;10.03;;
34695;SDS011;20918;51.138;17.370;2022-10-24T02:18:48;19.10;;;10.98;;
34695;SDS011;20918;51.138;17.370;2022-10-24T02:21:54;15.38;;;10.90;;
34695;SDS011;20918;51.138;17.370;2022-10-24T02:25:12;15.25;;;10.05;;
34695;SDS011;20918;51.138;17.370;2022-10-24T02:28:24;15.48;;;10.82;;
34695;SDS011;20918;51.138;17.370;2022-10-24T02:31:30;13.40;;;10.43;;
34695;SDS011;20918;51.138;17.370;2022-10-24T02:34:36;17.65;;;10.88;;
34695;SDS011;20918;51.138;17.370;2022-10-24T02:37:41;13.58;;;10.53;;
34695;SDS011;20918;51.138;17.370;2022-10-24T02:40:49;17.55;;;10.30;;
34695;SDS011;20918;51.138;17.370;2022-10-24T02:43:52;12.68;;;10.25;;
34695;SDS011;20918;51.138;17.370;2022-10-24T02:46:55;16.85;;;10.13;;
34695;SDS011;20918;51.138;17.370;2022-10-24T02:50:00;17.70;;;10.65;;
34695;SDS011;20918;51.138;17.370;2022-10-24T02:53:02;13.88;;;9.90;;
34695;SDS011;20918;51.138;17.370;2022-10-24T02:56:04;12.03;;;10.20;;
34695;SDS011;20918;51.138;17.370;2022-10-24T02:59:06;17.73;;;11.18;;
34695;SDS011;20918;51.138;17.370;2022-10-24T03:02:07;13.70;;;10.70;;
34695;SDS011;20918;51.138;17.370;2022-10-24T03:05:08;15.75;;;11.22;;
34695;SDS011;20918;51.138;17.370;2022-10-24T03:08:10;17.73;;;11.05;;
34695;SDS011;20918;51.138;17.370;2022-10-24T03:11:12;13.65;;;10.08;;
34695;SDS011;20918;51.138;17.370;2022-10-24T03:14:13;15.43;;;10.28;;
34695;SDS011;20918;51.138;17.370;2022-10-24T03:17:14;18.48;;;11.78;;
34695;SDS011;20918;51.138;17.370;2022-10-24T03:20:15;14.45;;;10.32;;
34695;SDS011;20918;51.138;17.370;2022-10-24T03:23:16;16.02;;;9.95;;
34695;SDS011;20918;51.138;17.370;2022-10-24T03:26:18;14.15;;;9.20;;
34695;SDS011;20918;51.138;17.370;2022-10-24T03:29:19;13.93;;;10.08;;
34695;SDS011;20918;51.138;17.370;2022-10-24T03:32:20;12.90;;;9.68;;
34695;SDS011;20918;51.138;17.370;2022-10-24T03:35:26;11.48;;;9.40;;
34695;SDS011;20918;51.138;17.370;2022-10-24T03:38:27;12.07;;;9.58;;
34695;SDS011;20918;51.138;17.370;2022-10-24T03:41:28;13.00;;;9.73;;
34695;SDS011;20918;51.138;17.370;2022-10-24T03:44:30;19.17;;;10.60;;
34695;SDS011;20918;51.138;17.370;2022-10-24T03:47:31;15.08;;;10.10;;
34695;SDS011;20918;51.138;17.370;2022-10-24T03:50:32;12.78;;;9.65;;
34695;SDS011;20918;51.138;17.370;2022-10-24T03:53:33;12.60;;;9.85;;
34695;SDS011;20918;51.138;17.370;2022-10-24T03:56:35;14.68;;;10.85;;
34695;SDS011;20918;51.138;17.370;2022-10-24T03:59:36;18.85;;;10.38;;
34695;SDS011;20918;51.138;17.370;2022-10-24T04:02:37;12.68;;;9.38;;
34695;SDS011;20918;51.138;17.370;2022-10-24T04:05:38;14.07;;;9.55;;
34695;SDS011;20918;51.138;17.370;2022-10-24T04:08:40;18.37;;;10.05;;
34695;SDS011;20918;51.138;17.370;2022-10-24T04:11:41;13.88;;;10.68;;
34695;SDS011;20918;51.138;17.370;2022-10-24T04:14:42;15.28;;;11.43;;
34695;SDS011;20918;51.138;17.370;2022-10-24T04:17:43;14.35;;;9.90;;
34695;SDS011;20918;51.138;17.370;2022-10-24T04:20:47;15.13;;;9.90;;
34695;SDS011;20918;51.138;17.370;2022-10-24T04:23:48;15.63;;;10.05;;
34695;SDS011;20918;51.138;17.370;2022-10-24T04:26:49;14.63;;;10.53;;
34695;SDS011;20918;51.138;17.370;2022-10-24T04:29:50;15.53;;;9.25;;
34695;SDS011;20918;51.138;17.370;2022-10-24T04:32:51;16.67;;;9.33;;
34695;SDS011;20918;51.138;17.370;2022-10-24T04:35:52;11.48;;;8.13;;
34695;SDS011;20918;51.138;17.370;2022-10-24T04:38:53;14.18;;;9.55;;
34695;SDS011;20918;51.138;17.370;2022-10-24T04:41:54;12.63;;;9.60;;
34695;SDS011;20918;51.138;17.370;2022-10-24T04:44:57;17.27;;;10.90;;
34695;SDS011;20918;51.138;17.370;2022-10-24T04:47:59;23.35;;;13.20;;
34695;SDS011;20918;51.138;17.370;2022-10-24T04:51:00;22.17;;;12.33;;
34695;SDS011;20918;51.138;17.370;2022-10-24T04:54:01;14.55;;;9.90;;
34695;SDS011;20918;51.138;17.370;2022-10-24T04:57:02;12.90;;;9.55;;
34695;SDS011;20918;51.138;17.370;2022-10-24T05:00:04;15.98;;;9.23;;
34695;SDS011;20918;51.138;17.370;2022-10-24T05:03:06;14.85;;;10.55;;
34695;SDS011;20918;51.138;17.370;2022-10-24T05:06:08;13.62;;;9.08;;
34695;SDS011;20918;51.138;17.370;2022-10-24T05:09:09;23.75;;;12.28;;
34695;SDS011;20918;51.138;17.370;2022-10-24T05:12:10;13.98;;;9.78;;
34695;SDS011;20918;51.138;17.370;2022-10-24T05:15:13;13.58;;;10.00;;
34695;SDS011;20918;51.138;17.370;2022-10-24T05:18:14;11.88;;;9.20;;
34695;SDS011;20918;51.138;17.370;2022-10-24T05:21:15;12.53;;;9.10;;
34695;SDS011;20918;51.138;17.370;2022-10-24T05:24:16;12.82;;;9.33;;
34695;SDS011;20918;51.138;17.370;2022-10-24T05:27:17;13.98;;;10.60;;
34695;SDS011;20918;51.138;17.370;2022-10-24T05:30:23;10.35;;;8.93;;
34695;SDS011;20918;51.138;17.370;2022-10-24T05:33:25;15.72;;;9.48;;
34695;SDS011;20918;51.138;17.370;2022-10-24T05:36:26;16.45;;;10.10;;
34695;SDS011;20918;51.138;17.370;2022-10-24T05:39:27;12.23;;;9.50;;
34695;SDS011;20918;51.138;17.370;2022-10-24T05:42:28;14.28;;;9.95;;
34695;SDS011;20918;51.138;17.370;2022-10-24T05:45:29;13.38;;;8.83;;
34695;SDS011;20918;51.138;17.370;2022-10-24T05:48:30;12.80;;;8.80;;
34695;SDS011;20918;51.138;17.370;2022-10-24T05:51:31;9.80;;;7.70;;
34695;SDS011;20918;51.138;17.370;2022-10-24T05:54:33;11.03;;;7.78;;
34695;SDS011;20918;51.138;17.370;2022-10-24T05:57:35;13.35;;;8.33;;
34695;SDS011;20918;51.138;17.370;2022-10-24T06:00:37;13.32;;;8.28;;
34695;SDS011;20918;51.138;17.370;2022-10-24T06:03:38;14.63;;;8.70;;
34695;SDS011;20918;51.138;17.370;2022-10-24T06:06:41;10.10;;;7.75;;
34695;SDS011;20918;51.138;17.370;2022-10-24T06:09:45;12.88;;;8.25;;
34695;SDS011;20918;51.138;17.370;2022-10-24T06:12:46;10.28;;;7.85;;
34695;SDS011;20918;51.138;17.370;2022-10-24T06:15:47;12.47;;;9.30;;
34695;SDS011;20918;51.138;17.370;2022-10-24T06:18:48;10.45;;;8.65;;
34695;SDS011;20918;51.138;17.370;2022-10-24T06:21:49;15.18;;;10.35;;
34695;SDS011;20918;51.138;17.370;2022-10-24T06:24:50;10.80;;;7.50;;
34695;SDS011;20918;51.138;17.370;2022-10-24T06:27:52;16.48;;;10.40;;
34695;SDS011;20918;51.138;17.370;2022-10-24T06:30:53;12.65;;;8.68;;
34695;SDS011;20918;51.138;17.370;2022-10-24T06:33:54;12.73;;;9.60;;
34695;SDS011;20918;51.138;17.370;2022-10-24T06:36:55;14.78;;;8.45;;
34695;SDS011;20918;51.138;17.370;2022-10-24T06:39:56;11.65;;;9.35;;
34695;SDS011;20918;51.138;17.370;2022-10-24T06:42:57;13.25;;;8.93;;
34695;SDS011;20918;51.138;17.370;2022-10-24T06:45:58;12.47;;;10.13;;
34695;SDS011;20918;51.138;17.370;2022-10-24T06:48:59;16.75;;;10.05;;
34695;SDS011;20918;51.138;17.370;2022-10-24T06:52:00;20.32;;;11.75;;
34695;SDS011;20918;51.138;17.370;2022-10-24T06:55:02;19.67;;;13.58;;
34695;SDS011;20918;51.138;17.370;2022-10-24T06:58:04;30.17;;;16.05;;
34695;SDS011;20918;51.138;17.370;2022-10-24T07:01:10;21.42;;;11.65;;
34695;SDS011;20918;51.138;17.370;2022-10-24T07:04:15;14.45;;;8.95;;
34695;SDS011;20918;51.138;17.370;2022-10-24T07:07:16;17.25;;;8.35;;
34695;SDS011;20918;51.138;17.370;2022-10-24T07:10:20;10.30;;;7.03;;
34695;SDS011;20918;51.138;17.370;2022-10-24T07:13:22;10.35;;;6.90;;
34695;SDS011;20918;51.138;17.370;2022-10-24T07:16:23;10.10;;;6.75;;
34695;SDS011;20918;51.138;17.370;2022-10-24T07:19:24;7.58;;;6.30;;
34695;SDS011;20918;51.138;17.370;2022-10-24T07:22:25;7.67;;;5.55;;
34695;SDS011;20918;51.138;17.370;2022-10-24T07:25:27;7.80;;;6.00;;
34695;SDS011;20918;51.138;17.370;2022-10-24T07:28:28;14.10;;;6.53;;
34695;SDS011;20918;51.138;17.370;2022-10-24T07:31:30;8.78;;;6.20;;
34695;SDS011;20918;51.138;17.370;2022-10-24T07:34:33;7.83;;;5.83;;
34695;SDS011;20918;51.138;17.370;2022-10-24T07:37:34;7.17;;;4.95;;
34695;SDS011;20918;51.138;17.370;2022-10-24T07:40:35;9.00;;;6.33;;
34695;SDS011;20918;51.138;17.370;2022-10-24T07:43:36;12.20;;;7.67;;
34695;SDS011;20918;51.138;17.370;2022-10-24T07:46:39;19.32;;;10.18;;
34695;SDS011;20918;51.138;17.370;2022-10-24T07:49:41;15.93;;;8.43;;
34695;SDS011;20918;51.138;17.370;2022-10-24T07:52:43;30.92;;;12.78;;
34695;SDS011;20918;51.138;17.370;2022-10-24T07:55:44;15.90;;;7.72;;
34695;SDS011;20918;51.138;17.370;2022-10-24T07:58:46;13.85;;;7.17;;
34695;SDS011;20918;51.138;17.370;2022-10-24T08:01:47;10.50;;;6.35;;
34695;SDS011;20918;51.138;17.370;2022-10-24T08:04:53;10.10;;;5.92;;
34695;SDS011;20918;51.138;17.370;2022-10-24T08:07:51;8.10;;;5.10;;
34695;SDS011;20918;51.138;17.370;2022-10-24T08:10:53;6.12;;;4.83;;
34695;SDS011;20918;51.138;17.370;2022-10-24T08:13:54;9.60;;;5.40;;
34695;SDS011;20918;51.138;17.370;2022-10-24T08:16:58;10.88;;;4.78;;
34695;SDS011;20918;51.138;17.370;2022-10-24T08:19:59;7.42;;;4.72;;
34695;SDS011;20918;51.138;17.370;2022-10-24T08:23:00;11.12;;;4.95;;
34695;SDS011;20918;51.138;17.370;2022-10-24T08:26:04;6.28;;;4.55;;
34695;SDS011;20918;51.138;17.370;2022-10-24T08:29:10;8.28;;;4.30;;
34695;SDS011;20918;51.138;17.370;2022-10-24T08:32:13;9.88;;;4.35;;
34695;SDS011;20918;51.138;17.370;2022-10-24T08:35:17;5.75;;;4.37;;
34695;SDS011;20918;51.138;17.370;2022-10-24T08:38:21;7.87;;;3.85;;
34695;SDS011;20918;51.138;17.370;2022-10-24T08:41:32;12.23;;;4.70;;
34695;SDS011;20918;51.138;17.370;2022-10-24T08:44:41;10.50;;;5.42;;
34695;SDS011;20918;51.138;17.370;2022-10-24T08:47:57;8.08;;;5.25;;
34695;SDS011;20918;51.138;17.370;2022-10-24T08:51:09;12.73;;;4.97;;
34695;SDS011;20918;51.138;17.370;2022-10-24T08:54:16;8.18;;;4.10;;
34695;SDS011;20918;51.138;17.370;2022-10-24T08:57:24;7.28;;;4.45;;
34695;SDS011;20918;51.138;17.370;2022-10-24T09:00:30;7.78;;;4.10;;
34695;SDS011;20918;51.138;17.370;2022-10-24T09:03:46;8.25;;;4.05;;
34695;SDS011;20918;51.138;17.370;2022-10-24T09:06:50;6.67;;;4.15;;
34695;SDS011;20918;51.138;17.370;2022-10-24T09:10:13;8.15;;;3.80;;
34695;SDS011;20918;51.138;17.370;2022-10-24T09:13:43;8.10;;;3.42;;
34695;SDS011;20918;51.138;17.370;2022-10-24T09:16:47;6.53;;;3.45;;
34695;SDS011;20918;51.138;17.370;2022-10-24T09:20:19;6.60;;;4.15;;
34695;SDS011;20918;51.138;17.370;2022-10-24T09:23:28;6.05;;;3.20;;
34695;SDS011;20918;51.138;17.370;2022-10-24T09:26:32;7.40;;;3.17;;
34695;SDS011;20918;51.138;17.370;2022-10-24T09:29:37;5.90;;;2.80;;
34695;SDS011;20918;51.138;17.370;2022-10-24T09:32:38;5.65;;;2.58;;
34695;SDS011;20918;51.138;17.370;2022-10-24T09:35:42;6.12;;;2.85;;
34695;SDS011;20918;51.138;17.370;2022-10-24T09:38:45;6.28;;;2.52;;
34695;SDS011;20918;51.138;17.370;2022-10-24T09:41:48;10.55;;;3.42;;
34695;SDS011;20918;51.138;17.370;2022-10-24T09:44:49;6.58;;;2.75;;
34695;SDS011;20918;51.138;17.370;2022-10-24T09:47:58;5.58;;;2.30;;
34695;SDS011;20918;51.138;17.370;2022-10-24T09:51:03;4.30;;;2.20;;
34695;SDS011;20918;51.138;17.370;2022-10-24T09:57:23;6.30;;;2.40;;
34695;SDS011;20918;51.138;17.370;2022-10-24T10:00:25;5.03;;;2.52;;
34695;SDS011;20918;51.138;17.370;2022-10-24T10:03:35;5.22;;;2.50;;
34695;SDS011;20918;51.138;17.370;2022-10-24T10:06:40;5.80;;;2.77;;
34695;SDS011;20918;51.138;17.370;2022-10-24T10:09:50;7.87;;;2.95;;
34695;SDS011;20918;51.138;17.370;2022-10-24T10:12:56;6.87;;;2.00;;
34695;SDS011;20918;51.138;17.370;2022-10-24T10:16:03;3.08;;;1.90;;
34695;SDS011;20918;51.138;17.370;2022-10-24T10:19:14;7.28;;;2.77;;
34695;SDS011;20918;51.138;17.370;2022-10-24T10:22:29;8.15;;;2.58;;
34695;SDS011;20918;51.138;17.370;2022-10-24T10:25:31;5.70;;;2.12;;
34695;SDS011;20918;51.138;17.370;2022-10-24T10:28:34;4.78;;;2.12;;
34695;SDS011;20918;51.138;17.370;2022-10-24T10:34:57;21.83;;;4.07;;
34695;SDS011;20918;51.138;17.370;2022-10-24T10:38:16;3.67;;;2.27;;
34695;SDS011;20918;51.138;17.370;2022-10-24T10:41:48;8.50;;;2.00;;
34695;SDS011;20918;51.138;17.370;2022-10-24T10:52:12;4.33;;;2.12;;
34695;SDS011;20918;51.138;17.370;2022-10-24T10:59:18;6.28;;;2.02;;
34695;SDS011;20918;51.138;17.370;2022-10-24T11:09:32;7.45;;;2.42;;
34695;SDS011;20918;51.138;17.370;2022-10-24T11:12:42;5.37;;;2.47;;
34695;SDS011;20918;51.138;17.370;2022-10-24T11:15:46;2.55;;;1.70;;
34695;SDS011;20918;51.138;17.370;2022-10-24T11:18:52;7.42;;;2.02;;
34695;SDS011;20918;51.138;17.370;2022-10-24T11:22:02;4.87;;;1.90;;
34695;SDS011;20918;51.138;17.370;2022-10-24T11:25:06;6.00;;;2.00;;
34695;SDS011;20918;51.138;17.370;2022-10-24T11:32:06;4.45;;;1.85;;
34695;SDS011;20918;51.138;17.370;2022-10-24T11:35:27;3.52;;;1.62;;
34695;SDS011;20918;51.138;17.370;2022-10-24T11:38:32;4.20;;;2.00;;
34695;SDS011;20918;51.138;17.370;2022-10-24T11:41:42;7.40;;;2.02;;
34695;SDS011;20918;51.138;17.370;2022-10-24T11:44:46;4.35;;;2.00;;
34695;SDS011;20918;51.138;17.370;2022-10-24T11:51:25;3.33;;;2.15;;
34695;SDS011;20918;51.138;17.370;2022-10-24T11:54:36;3.02;;;1.75;;
34695;SDS011;20918;51.138;17.370;2022-10-24T11:57:43;6.90;;;2.13;;
34695;SDS011;20918;51.138;17.370;2022-10-24T12:01:14;3.92;;;1.80;;
34695;SDS011;20918;51.138;17.370;2022-10-24T12:04:16;7.53;;;2.17;;
34695;SDS011;20918;51.138;17.370;2022-10-24T12:07:36;5.23;;;2.50;;
34695;SDS011;20918;51.138;17.370;2022-10-24T12:17:59;4.87;;;2.10;;
34695;SDS011;20918;51.138;17.370;2022-10-24T12:21:07;6.53;;;2.25;;
34695;SDS011;20918;51.138;17.370;2022-10-24T12:27:38;4.80;;;1.90;;
34695;SDS011;20918;51.138;17.370;2022-10-24T12:30:41;9.55;;;2.37;;
34695;SDS011;20918;51.138;17.370;2022-10-24T12:33:43;5.92;;;2.30;;
34695;SDS011;20918;51.138;17.370;2022-10-24T12:47:43;11.48;;;2.45;;
34695;SDS011;20918;51.138;17.370;2022-10-24T12:54:42;4.65;;;2.62;;
34695;SDS011;20918;51.138;17.370;2022-10-24T12:57:45;9.70;;;2.75;;
34695;SDS011;20918;51.138;17.370;2022-10-24T13:21:04;8.95;;;2.17;;
34695;SDS011;20918;51.138;17.370;2022-10-24T13:24:09;8.15;;;3.02;;
34695;SDS011;20918;51.138;17.370;2022-10-24T13:27:34;11.50;;;3.50;;
34695;SDS011;20918;51.138;17.370;2022-10-24T13:30:35;6.00;;;2.50;;
34695;SDS011;20918;51.138;17.370;2022-10-24T13:33:40;6.90;;;2.50;;
34695;SDS011;20918;51.138;17.370;2022-10-24T13:36:44;8.60;;;3.35;;
34695;SDS011;20918;51.138;17.370;2022-10-24T13:39:54;7.28;;;2.52;;
34695;SDS011;20918;51.138;17.370;2022-10-24T13:43:16;8.13;;;2.70;;
34695;SDS011;20918;51.138;17.370;2022-10-24T13:46:27;13.13;;;3.05;;
34695;SDS011;20918;51.138;17.370;2022-10-24T13:49:55;11.65;;;2.85;;
34695;SDS011;20918;51.138;17.370;2022-10-24T13:53:19;9.48;;;3.17;;
34695;SDS011;20918;51.138;17.370;2022-10-24T13:56:37;8.78;;;3.02;;
34695;SDS011;20918;51.138;17.370;2022-10-24T13:59:40;10.72;;;3.35;;
34695;SDS011;20918;51.138;17.370;2022-10-24T14:02:42;10.78;;;3.52;;
34695;SDS011;20918;51.138;17.370;2022-10-24T14:05:55;10.55;;;3.15;;
34695;SDS011;20918;51.138;17.370;2022-10-24T14:08:55;8.98;;;3.67;;
34695;SDS011;20918;51.138;17.370;2022-10-24T14:12:00;10.75;;;3.05;;
34695;SDS011;20918;51.138;17.370;2022-10-24T14:15:02;11.45;;;3.87;;
34695;SDS011;20918;51.138;17.370;2022-10-24T14:18:11;8.13;;;3.50;;
34695;SDS011;20918;51.138;17.370;2022-10-24T14:21:18;7.28;;;2.98;;
34695;SDS011;20918;51.138;17.370;2022-10-24T14:24:21;9.18;;;3.50;;
34695;SDS011;20918;51.138;17.370;2022-10-24T14:27:22;9.13;;;3.75;;
34695;SDS011;20918;51.138;17.370;2022-10-24T14:30:26;11.80;;;4.53;;
34695;SDS011;20918;51.138;17.370;2022-10-24T14:33:31;10.40;;;3.92;;
34695;SDS011;20918;51.138;17.370;2022-10-24T14:36:45;9.08;;;3.50;;
34695;SDS011;20918;51.138;17.370;2022-10-24T14:39:46;9.75;;;4.10;;
34695;SDS011;20918;51.138;17.370;2022-10-24T14:42:48;12.18;;;4.00;;
34695;SDS011;20918;51.138;17.370;2022-10-24T14:49:28;19.37;;;5.78;;
34695;SDS011;20918;51.138;17.370;2022-10-24T14:52:33;12.28;;;4.45;;
34695;SDS011;20918;51.138;17.370;2022-10-24T14:55:39;13.45;;;4.83;;
34695;SDS011;20918;51.138;17.370;2022-10-24T14:58:40;10.03;;;5.25;;
34695;SDS011;20918;51.138;17.370;2022-10-24T15:01:41;14.47;;;5.45;;
34695;SDS011;20918;51.138;17.370;2022-10-24T15:08:42;11.68;;;6.00;;
34695;SDS011;20918;51.138;17.370;2022-10-24T15:11:46;24.40;;;11.20;;
34695;SDS011;20918;51.138;17.370;2022-10-24T15:14:48;16.93;;;7.62;;
34695;SDS011;20918;51.138;17.370;2022-10-24T15:17:51;13.25;;;5.67;;
34695;SDS011;20918;51.138;17.370;2022-10-24T15:21:04;16.05;;;7.40;;
34695;SDS011;20918;51.138;17.370;2022-10-24T15:24:15;8.90;;;5.10;;
34695;SDS011;20918;51.138;17.370;2022-10-24T15:27:28;13.15;;;4.30;;
34695;SDS011;20918;51.138;17.370;2022-10-24T15:33:37;12.60;;;4.03;;
34695;SDS011;20918;51.138;17.370;2022-10-24T15:36:40;7.87;;;3.35;;
34695;SDS011;20918;51.138;17.370;2022-10-24T15:39:43;11.03;;;4.15;;
34695;SDS011;20918;51.138;17.370;2022-10-24T15:42:45;5.53;;;3.58;;
34695;SDS011;20918;51.138;17.370;2022-10-24T15:45:46;16.32;;;3.75;;
34695;SDS011;20918;51.138;17.370;2022-10-24T15:48:47;11.68;;;4.37;;
34695;SDS011;20918;51.138;17.370;2022-10-24T15:51:49;9.90;;;3.75;;
34695;SDS011;20918;51.138;17.370;2022-10-24T15:54:51;9.60;;;3.98;;
34695;SDS011;20918;51.138;17.370;2022-10-24T15:57:52;9.15;;;3.50;;
34695;SDS011;20918;51.138;17.370;2022-10-24T16:00:53;14.43;;;6.78;;
34695;SDS011;20918;51.138;17.370;2022-10-24T16:03:54;11.45;;;4.53;;
34695;SDS011;20918;51.138;17.370;2022-10-24T16:06:56;11.80;;;4.33;;
34695;SDS011;20918;51.138;17.370;2022-10-24T16:09:57;8.60;;;3.75;;
34695;SDS011;20918;51.138;17.370;2022-10-24T16:12:59;13.98;;;4.40;;
34695;SDS011;20918;51.138;17.370;2022-10-24T16:16:01;12.00;;;5.33;;
34695;SDS011;20918;51.138;17.370;2022-10-24T16:19:02;14.13;;;5.70;;
34695;SDS011;20918;51.138;17.370;2022-10-24T16:22:03;12.53;;;6.17;;
34695;SDS011;20918;51.138;17.370;2022-10-24T16:25:04;13.48;;;5.08;;
34695;SDS011;20918;51.138;17.370;2022-10-24T16:28:06;17.05;;;4.28;;
34695;SDS011;20918;51.138;17.370;2022-10-24T16:31:09;17.45;;;6.95;;
34695;SDS011;20918;51.138;17.370;2022-10-24T16:34:11;11.20;;;5.05;;
34695;SDS011;20918;51.138;17.370;2022-10-24T16:37:12;11.97;;;5.25;;
34695;SDS011;20918;51.138;17.370;2022-10-24T16:40:13;13.85;;;5.37;;
34695;SDS011;20918;51.138;17.370;2022-10-24T16:43:18;11.30;;;5.30;;
34695;SDS011;20918;51.138;17.370;2022-10-24T16:46:24;15.03;;;5.87;;
34695;SDS011;20918;51.138;17.370;2022-10-24T16:49:27;14.28;;;7.42;;
34695;SDS011;20918;51.138;17.370;2022-10-24T16:52:30;12.00;;;5.75;;
34695;SDS011;20918;51.138;17.370;2022-10-24T16:55:35;11.25;;;5.55;;
34695;SDS011;20918;51.138;17.370;2022-10-24T16:58:39;12.63;;;5.87;;
34695;SDS011;20918;51.138;17.370;2022-10-24T17:01:41;13.05;;;6.03;;
34695;SDS011;20918;51.138;17.370;2022-10-24T17:04:43;12.75;;;6.33;;
34695;SDS011;20918;51.138;17.370;2022-10-24T17:07:45;23.70;;;12.23;;
34695;SDS011;20918;51.138;17.370;2022-10-24T17:10:47;13.70;;;7.20;;
34695;SDS011;20918;51.138;17.370;2022-10-24T17:13:48;10.13;;;6.65;;
34695;SDS011;20918;51.138;17.370;2022-10-24T17:16:54;17.48;;;8.33;;
34695;SDS011;20918;51.138;17.370;2022-10-24T17:19:55;11.08;;;6.90;;
34695;SDS011;20918;51.138;17.370;2022-10-24T17:22:57;34.88;;;19.57;;
34695;SDS011;20918;51.138;17.370;2022-10-24T17:25:59;32.35;;;15.55;;
34695;SDS011;20918;51.138;17.370;2022-10-24T17:29:02;62.33;;;33.53;;
34695;SDS011;20918;51.138;17.370;2022-10-24T17:32:04;48.60;;;26.55;;
34695;SDS011;20918;51.138;17.370;2022-10-24T17:35:08;78.22;;;46.18;;
34695;SDS011;20918;51.138;17.370;2022-10-24T17:41:37;41.10;;;24.75;;
34695;SDS011;20918;51.138;17.370;2022-10-24T17:44:41;28.75;;;16.30;;
34695;SDS011;20918;51.138;17.370;2022-10-24T17:47:43;27.25;;;17.50;;
34695;SDS011;20918;51.138;17.370;2022-10-24T17:50:46;36.55;;;20.50;;
34695;SDS011;20918;51.138;17.370;2022-10-24T17:53:51;34.23;;;21.87;;
34695;SDS011;20918;51.138;17.370;2022-10-24T17:56:53;49.35;;;31.27;;
34695;SDS011;20918;51.138;17.370;2022-10-24T17:59:55;55.65;;;28.32;;
34695;SDS011;20918;51.138;17.370;2022-10-24T18:02:57;32.08;;;19.12;;
34695;SDS011;20918;51.138;17.370;2022-10-24T18:05:59;38.58;;;21.57;;
34695;SDS011;20918;51.138;17.370;2022-10-24T18:09:04;26.23;;;14.55;;
34695;SDS011;20918;51.138;17.370;2022-10-24T18:12:06;25.85;;;10.48;;
34695;SDS011;20918;51.138;17.370;2022-10-24T18:15:08;20.17;;;7.75;;
34695;SDS011;20918;51.138;17.370;2022-10-24T18:18:13;17.67;;;8.40;;
34695;SDS011;20918;51.138;17.370;2022-10-24T18:21:16;14.00;;;7.95;;
34695;SDS011;20918;51.138;17.370;2022-10-24T18:24:20;17.55;;;8.40;;
34695;SDS011;20918;51.138;17.370;2022-10-24T18:27:22;16.45;;;8.15;;
34695;SDS011;20918;51.138;17.370;2022-10-24T18:30:26;15.28;;;7.50;;
34695;SDS011;20918;51.138;17.370;2022-10-24T18:33:27;16.25;;;7.33;;
34695;SDS011;20918;51.138;17.370;2022-10-24T18:36:33;13.08;;;7.33;;
34695;SDS011;20918;51.138;17.370;2022-10-24T18:39:36;14.33;;;7.33;;
34695;SDS011;20918;51.138;17.370;2022-10-24T18:42:47;15.00;;;7.75;;
34695;SDS011;20918;51.138;17.370;2022-10-24T18:45:51;12.82;;;7.62;;
34695;SDS011;20918;51.138;17.370;2022-10-24T18:48:52;13.30;;;7.90;;
34695;SDS011;20918;51.138;17.370;2022-10-24T18:51:58;18.70;;;8.25;;
34695;SDS011;20918;51.138;17.370;2022-10-24T18:58:19;14.87;;;7.28;;
34695;SDS011;20918;51.138;17.370;2022-10-24T19:01:24;20.50;;;8.70;;
34695;SDS011;20918;51.138;17.370;2022-10-24T19:04:40;18.60;;;7.65;;
34695;SDS011;20918;51.138;17.370;2022-10-24T19:07:43;12.90;;;7.62;;
34695;SDS011;20918;51.138;17.370;2022-10-24T19:10:46;18.75;;;7.80;;
34695;SDS011;20918;51.138;17.370;2022-10-24T19:13:48;17.48;;;8.28;;
34695;SDS011;20918;51.138;17.370;2022-10-24T19:16:49;16.32;;;8.20;;
34695;SDS011;20918;51.138;17.370;2022-10-24T19:19:51;14.90;;;9.23;;
34695;SDS011;20918;51.138;17.370;2022-10-24T19:22:56;15.30;;;8.55;;
34695;SDS011;20918;51.138;17.370;2022-10-24T19:25:58;27.98;;;10.38;;
34695;SDS011;20918;51.138;17.370;2022-10-24T19:28:59;18.65;;;9.83;;
34695;SDS011;20918;51.138;17.370;2022-10-24T19:32:01;18.50;;;9.08;;
34695;SDS011;20918;51.138;17.370;2022-10-24T19:35:02;26.97;;;10.60;;
34695;SDS011;20918;51.138;17.370;2022-10-24T19:38:06;16.35;;;9.43;;
34695;SDS011;20918;51.138;17.370;2022-10-24T19:41:08;15.88;;;9.28;;
34695;SDS011;20918;51.138;17.370;2022-10-24T19:44:13;15.83;;;9.25;;
34695;SDS011;20918;51.138;17.370;2022-10-24T19:47:21;20.48;;;10.10;;